createdAt,value
2023-01-29T00:14:05.590Z,-2.9
2023-01-29T00:29:05.672Z,-3.1
2023-01-29T00:44:05.668Z,-2.9
2023-01-29T00:59:05.688Z,-2.8
2023-01-29T01:14:05.598Z,-2.7
2023-01-29T01:29:05.699Z,-2.9
2023-01-29T01:44:05.616Z,-2.9
2023-01-29T01:59:05.676Z,-2.9
2023-01-29T02:14:05.630Z,-2.9
2023-01-29T02:29:05.699Z,-3.1
2023-01-29T02:44:05.599Z,-3.2
2023-01-29T02:59:05.601Z,-3.1
2023-01-29T03:14:05.650Z,-3.1
2023-01-29T03:29:05.723Z,-3.2
2023-01-29T03:44:05.720Z,-3.2
2023-01-29T03:59:05.699Z,-3.2
2023-01-29T04:14:05.729Z,-3.1
2023-01-29T04:29:05.712Z,-3.1
2023-01-29T04:44:05.701Z,-3.1
2023-01-29T04:59:05.586Z,-3.1
2023-01-29T05:14:05.615Z,-3.1
2023-01-29T05:29:05.714Z,-3
2023-01-29T05:44:05.624Z,-2.8
2023-01-29T05:59:05.656Z,-2.7
2023-01-29T06:14:05.670Z,-2.6
2023-01-29T06:29:05.721Z,-2.6
2023-01-29T06:44:05.693Z,-2.5
2023-01-29T06:59:05.732Z,-2.5
2023-01-29T07:14:05.718Z,-2.6
2023-01-29T07:29:05.693Z,-2.5
2023-01-29T07:44:05.597Z,-2.3
2023-01-29T07:59:05.695Z,-2.2
2023-01-29T08:14:05.693Z,-2.1
2023-01-29T08:29:05.710Z,-1.9
2023-01-29T08:44:05.595Z,-1.8
2023-01-29T08:59:05.725Z,-1.6
2023-01-29T09:14:05.639Z,-1.4
2023-01-29T09:29:05.717Z,-1.2
2023-01-29T09:44:05.627Z,-1.1
2023-01-29T09:59:05.706Z,-0.9
2023-01-29T10:14:05.602Z,-0.9
2023-01-29T10:29:05.724Z,-0.6
2023-01-29T10:44:05.692Z,-0.4
2023-01-29T10:59:05.718Z,-0.3
2023-01-29T11:14:05.606Z,0
2023-01-29T11:29:05.715Z,0.1
2023-01-29T11:44:05.593Z,0.2
2023-01-29T11:59:05.639Z,0.4
2023-01-29T12:14:05.593Z,0.4
2023-01-29T12:29:05.695Z,0.5
2023-01-29T12:44:05.617Z,0.7
2023-01-29T12:59:05.726Z,0.9
2023-01-29T13:14:05.631Z,1.1
2023-01-29T13:29:05.716Z,1.1
2023-01-29T13:44:05.622Z,1.4
2023-01-29T13:59:05.690Z,1.4
2023-01-29T14:14:05.714Z,1.3
2023-01-29T14:29:05.724Z,1.1
2023-01-29T14:44:05.614Z,1.1
2023-01-29T14:59:05.729Z,1.1
2023-01-29T15:14:05.635Z,1.1
2023-01-29T15:29:05.689Z,1
2023-01-29T15:44:05.593Z,0.9
2023-01-29T15:59:09.619Z,0.9
2023-01-29T16:14:05.654Z,0.8
2023-01-29T16:29:05.737Z,0.8
2023-01-29T16:44:05.692Z,0.8
2023-01-29T16:59:05.687Z,0.8
2023-01-29T17:14:05.625Z,0.8
2023-01-29T17:29:05.694Z,0.8
2023-01-29T17:44:05.709Z,0.9
2023-01-29T17:59:05.724Z,0.9
2023-01-29T18:14:13.531Z,1
2023-01-29T18:29:05.743Z,1.1
2023-01-29T18:44:05.694Z,1.1
2023-01-29T18:59:06.619Z,1.1
2023-01-29T19:14:05.628Z,1.2
2023-01-29T19:29:05.940Z,1.1
2023-01-29T19:44:05.601Z,1.2
2023-01-29T19:59:05.733Z,1.3
2023-01-29T20:14:05.600Z,1.4
2023-01-29T20:29:05.754Z,1.4
2023-01-29T20:44:05.960Z,1.4
2023-01-29T20:59:05.675Z,1.6
2023-01-29T21:14:05.631Z,1.5
2023-01-29T21:29:05.694Z,1.7
2023-01-29T21:44:05.631Z,1.6
2023-01-29T21:59:05.620Z,1.9
2023-01-29T22:14:05.587Z,1.9
2023-01-29T22:29:05.721Z,1.9
2023-01-29T22:44:05.632Z,1.9
2023-01-29T22:59:05.692Z,2
2023-01-29T23:14:05.618Z,1.9
2023-01-29T23:29:05.723Z,2.1
2023-01-29T23:44:05.601Z,2.2
2023-01-29T23:59:05.716Z,2.4
